Time;durP1;ratioP1;P1;durP2;ratioP2;P2;SDS_P1;SDS_P2;PMS_P1;PMS_P2;Temp;Humidity;BMP_temperature;BMP_pressure;BME280_temperature;BME280_humidity;BME280_pressure;Samples;Min_cycle;Max_cycle;Signal;HPM_P1;HPM_P2
2023/07/12 00:03:27;;;;;;;3.83;3.20;;;16.90;97.20;;;;;;10275169;28;20245;-82
2023/07/12 00:08:31;;;;;;;3.38;3.08;;;16.80;97.80;;;;;;10273272;28;20320;-82
2023/07/12 00:13:34;;;;;;;5.05;3.10;;;16.70;98.10;;;;;;10267490;28;20253;-82
2023/07/12 00:18:36;;;;;;;6.32;3.50;;;16.70;98.70;;;;;;10250452;29;20346;-82
2023/07/12 00:23:39;;;;;;;6.00;3.70;;;16.50;98.70;;;;;;10233196;29;20234;-82
2023/07/12 00:28:42;;;;;;;6.47;3.85;;;16.50;98.60;;;;;;10266624;28;20242;-82
2023/07/12 00:33:44;;;;;;;7.57;3.50;;;16.60;98.80;;;;;;10250089;29;20250;-82
2023/07/12 00:38:48;;;;;;;3.92;3.22;;;16.50;98.80;;;;;;10270770;28;20273;-82
2023/07/12 00:44:21;;;;;;;4.13;3.38;;;16.50;98.80;;;;;;10271097;28;20324;-82
2023/07/12 00:49:25;;;;;;;3.80;3.35;;;16.50;98.40;;;;;;10287397;28;20305;-82
2023/07/12 00:54:47;;;;;;;5.63;3.55;;;;;;;;;;10287542;28;20237;-82
2023/07/12 01:00:10;;;;;;;5.93;3.78;;;16.20;99.00;;;;;;10287706;28;20731;-82
2023/07/12 01:05:15;;;;;;;4.35;3.30;;;16.30;99.90;;;;;;10289303;28;20241;-83
2023/07/12 01:10:18;;;;;;;7.07;3.75;;;16.30;99.90;;;;;;10269230;28;20298;-83
2023/07/12 01:15:21;;;;;;;5.25;3.85;;;16.20;99.90;;;;;;10288089;28;20694;-83
2023/07/12 01:20:24;;;;;;;6.57;4.20;;;16.00;99.20;;;;;;10288482;28;20317;-83
2023/07/12 01:25:43;;;;;;;4.60;4.15;;;15.90;98.90;;;;;;10286335;28;20715;-83
2023/07/12 01:30:46;;;;;;;3.60;3.25;;;15.90;99.60;;;;;;10283722;28;20276;-83
2023/07/12 01:35:48;;;;;;;5.75;3.72;;;16.20;99.90;;;;;;10285728;28;20646;-83
2023/07/12 01:40:51;;;;;;;5.57;3.70;;;16.10;98.40;;;;;;10257126;28;20329;-83
2023/07/12 01:45:54;;;;;;;6.38;3.72;;;16.10;98.90;;;;;;10207251;29;20246;-83
2023/07/12 01:50:56;;;;;;;6.90;4.35;;;16.00;98.70;;;;;;10213228;28;20637;-83
2023/07/12 01:56:00;;;;;;;2.80;2.47;;;15.90;98.80;;;;;;10245028;28;20237;-83
2023/07/12 02:01:03;;;;;;;3.30;2.47;;;16.20;99.90;;;;;;10246617;29;20309;-83
2023/07/12 02:06:08;;;;;;;3.85;3.22;;;16.70;99.90;;;;;;10243556;29;20312;-83
2023/07/12 02:11:11;;;;;;;4.35;3.78;;;16.60;98.00;;;;;;10223064;28;20246;-83
2023/07/12 02:16:13;;;;;;;5.68;4.05;;;16.60;96.90;;;;;;10189110;29;20270;-83
2023/07/12 02:21:16;;;;;;;5.43;3.45;;;16.40;97.40;;;;;;10238910;29;20242;-83
2023/07/12 02:26:19;;;;;;;4.28;3.83;;;16.30;98.90;;;;;;10244189;28;20246;-83
2023/07/12 02:31:23;;;;;;;4.70;3.50;;;16.10;98.90;;;;;;10211527;29;20357;-83
2023/07/12 02:36:30;;;;;;;4.13;3.03;;;16.00;99.40;;;;;;10220191;29;20267;-83
2023/07/12 02:41:32;;;;;;;7.05;3.60;;;16.00;99.50;;;;;;10259141;28;20256;-83
2023/07/12 02:46:35;;;;;;;3.33;3.03;;;15.90;99.60;;;;;;10282410;28;20305;-83
2023/07/12 02:51:38;;;;;;;4.68;3.10;;;16.00;99.90;;;;;;10245144;28;20242;-85
2023/07/12 02:56:40;;;;;;;3.83;3.28;;;16.10;99.90;;;;;;10244780;29;20677;-84
2023/07/12 03:01:46;;;;;;;5.25;2.95;;;16.10;99.90;;;;;;10245464;29;20234;-83
2023/07/12 03:06:49;;;;;;;4.57;3.80;;;16.20;99.90;;;;;;10283996;28;20261;-83
2023/07/12 03:11:52;;;;;;;2.72;2.42;;;16.30;99.90;;;;;;10275219;28;20676;-84
2023/07/12 03:16:55;;;;;;;6.82;3.78;;;16.50;99.90;;;;;;10291456;28;20264;-83
2023/07/12 03:21:57;;;;;;;4.93;3.65;;;16.50;99.60;;;;;;10292224;28;20237;-83
2023/07/12 03:27:00;;;;;;;4.38;3.13;;;16.80;98.10;;;;;;10292358;28;20241;-83
2023/07/12 03:32:05;;;;;;;6.07;4.10;;;17.00;98.30;;;;;;10290669;28;20245;-83
2023/07/12 03:37:08;;;;;;;4.05;3.03;;;17.40;97.30;;;;;;10291134;28;20328;-83
2023/07/12 03:42:10;;;;;;;5.80;3.00;;;17.70;98.00;;;;;;10255422;28;20318;-83
2023/07/12 03:47:13;;;;;;;4.82;3.60;;;17.90;95.90;;;;;;10212694;28;20622;-83
2023/07/12 03:52:15;;;;;;;1.73;1.40;;;18.30;95.80;;;;;;10251451;29;20234;-83
2023/07/12 03:57:18;;;;;;;2.25;2.03;;;18.60;96.70;;;;;;10249887;28;20258;-83
2023/07/12 04:02:20;;;;;;;5.40;3.55;;;18.90;96.00;;;;;;10250614;29;20246;-83
2023/07/12 04:07:23;;;;;;;10.02;3.92;;;19.10;93.90;;;;;;10236994;29;20242;-83
2023/07/12 04:12:25;;;;;;;2.80;2.15;;;19.30;92.60;;;;;;10228029;28;20269;-83
2023/07/12 04:17:28;;;;;;;2.55;2.22;;;19.70;91.30;;;;;;10249366;28;20265;-83
2023/07/12 04:22:31;;;;;;;4.70;2.53;;;20.00;90.20;;;;;;10248174;28;20242;-83
2023/07/12 04:27:37;;;;;;;3.85;2.90;;;20.30;87.90;;;;;;10250411;28;20245;-83
2023/07/12 04:32:39;;;;;;;8.25;4.10;;;20.30;86.20;;;;;;10231784;29;20242;-83
2023/07/12 04:37:50;;;;;;;4.43;2.67;;;20.40;86.40;;;;;;10221853;28;20290;-83
2023/07/12 04:42:53;;;;;;;8.38;3.58;;;20.50;88.50;;;;;;10245045;28;20289;-83
2023/07/12 04:47:55;;;;;;;3.05;2.33;;;20.50;84.00;;;;;;10287326;28;20249;-83
2023/07/12 04:52:58;;;;;;;3.72;2.50;;;20.50;86.30;;;;;;10274546;28;20316;-83
2023/07/12 04:58:00;;;;;;;10.43;3.60;;;20.50;84.40;;;;;;10284725;28;20265;-83
2023/07/12 05:03:03;;;;;;;4.13;3.15;;;20.60;80.80;;;;;;10287158;28;20284;-83
2023/07/12 05:08:06;;;;;;;2.63;2.40;;;20.80;79.90;;;;;;10286785;28;20280;-83
2023/07/12 05:13:08;;;;;;;3.22;2.92;;;21.00;80.20;;;;;;10266655;28;20277;-83
2023/07/12 05:18:11;;;;;;;3.60;2.83;;;21.10;76.10;;;;;;10286363;28;20264;-83
2023/07/12 05:23:14;;;;;;;5.63;3.63;;;21.20;76.50;;;;;;10286993;28;20296;-81
2023/07/12 05:28:20;;;;;;;5.35;4.85;;;21.30;72.80;;;;;;10285511;28;20288;-82
2023/07/12 05:33:22;;;;;;;9.85;4.35;;;21.40;67.60;;;;;;10286504;28;20242;-81
2023/07/12 05:38:25;;;;;;;5.80;4.00;;;21.50;66.60;;;;;;10284493;28;20265;-82
2023/07/12 05:43:28;;;;;;;6.88;4.30;;;21.30;68.10;;;;;;10284004;28;20261;-81
2023/07/12 05:48:32;;;;;;;10.07;4.63;;;22.00;63.70;;;;;;10287405;28;20292;-82
2023/07/12 05:53:37;;;;;;;12.88;3.92;;;22.10;61.20;;;;;;10283206;28;20288;-81
2023/07/12 05:58:40;;;;;;;8.30;4.32;;;21.70;62.50;;;;;;10282881;28;20265;-82
2023/07/12 06:03:42;;;;;;;6.38;4.97;;;21.50;63.90;;;;;;10282103;28;20237;-82
2023/07/12 06:08:45;;;;;;;31.90;6.28;;;21.50;63.50;;;;;;10282902;28;20683;-82
2023/07/12 06:13:48;;;;;;;18.70;5.68;;;21.30;64.70;;;;;;10283890;28;20245;-82
2023/07/12 06:18:51;;;;;;;15.75;5.68;;;21.20;65.50;;;;;;10285537;28;20313;-82
2023/07/12 06:23:57;;;;;;;6.05;3.67;;;21.00;67.90;;;;;;10258440;28;20274;-82
2023/07/12 06:29:01;;;;;;;6.57;2.75;;;21.10;70.20;;;;;;10254497;28;20249;-83
2023/07/12 06:34:04;;;;;;;6.18;4.05;;;21.20;70.20;;;;;;10246028;28;20249;-82
2023/07/12 06:39:06;;;;;;;13.93;5.40;;;21.30;70.10;;;;;;10281317;28;20268;-82
2023/07/12 06:44:09;;;;;;;5.68;3.97;;;21.40;71.80;;;;;;10293341;28;20272;-83
2023/07/12 06:49:15;;;;;;;9.38;3.28;;;21.50;71.50;;;;;;10273507;28;20323;-83
2023/07/12 06:54:18;;;;;;;8.95;5.18;;;21.50;70.90;;;;;;10292338;28;20248;-82
2023/07/12 06:59:21;;;;;;;5.25;4.75;;;21.50;70.70;;;;;;10292196;28;20265;-83
2023/07/12 07:04:24;;;;;;;13.32;7.05;;;21.40;70.40;;;;;;10287148;28;20288;-81
2023/07/12 07:09:27;;;;;;;14.32;6.30;;;21.30;73.10;;;;;;10290023;28;20256;-83
2023/07/12 07:14:30;;;;;;;5.72;4.20;;;21.10;74.20;;;;;;10290233;28;20653;-83
2023/07/12 07:19:32;;;;;;;9.52;4.78;;;21.30;74.40;;;;;;10290811;28;20269;-83
2023/07/12 07:24:35;;;;;;;4.63;4.03;;;21.50;74.30;;;;;;10274291;28;20237;-84
2023/07/12 07:29:38;;;;;;;9.27;4.32;;;21.60;73.40;;;;;;10290173;28;20300;-83
2023/07/12 07:34:42;;;;;;;12.70;4.68;;;21.70;74.00;;;;;;10290951;28;20320;-83
2023/07/12 07:39:44;;;;;;;5.85;4.20;;;21.90;71.60;;;;;;10291123;28;20268;-83
2023/07/12 07:44:47;;;;;;;12.88;5.28;;;21.90;71.10;;;;;;10289043;28;20307;-83
2023/07/12 07:49:55;;;;;;;9.48;4.35;;;21.90;72.20;;;;;;10285929;28;20245;-82
2023/07/12 07:54:58;;;;;;;7.28;4.13;;;21.80;72.50;;;;;;10290467;28;20657;-82
2023/07/12 08:00:05;;;;;;;10.85;4.53;;;21.60;78.60;;;;;;10301391;28;20260;-82
2023/07/12 08:05:14;;;;;;;14.30;6.18;;;21.60;83.00;;;;;;10296788;28;20528;-83
2023/07/12 08:10:18;;;;;;;10.63;3.75;;;21.30;92.10;;;;;;10289534;28;20245;-83
2023/07/12 08:15:21;;;;;;;5.93;4.72;;;21.20;88.60;;;;;;10269517;28;20233;-83
2023/07/12 08:20:24;;;;;;;16.02;6.18;;;21.30;91.40;;;;;;10262428;28;20270;-83
2023/07/12 08:25:27;;;;;;;7.20;5.50;;;21.00;97.10;;;;;;10278396;28;20249;-83
2023/07/12 08:30:30;;;;;;;11.63;6.00;;;20.50;99.80;;;;;;10272343;28;20307;-83
2023/07/12 08:35:32;;;;;;;5.70;4.70;;;20.10;99.90;;;;;;10283360;28;20314;-82
2023/07/12 08:40:50;;;;;;;6.63;5.85;;;20.10;99.90;;;;;;10253368;28;20270;-82
2023/07/12 08:45:56;;;;;;;18.88;7.57;;;20.30;99.90;;;;;;10276129;28;20230;-82
2023/07/12 08:51:00;;;;;;;11.07;6.72;;;20.30;99.90;;;;;;10249427;28;20245;-82
2023/07/12 08:56:04;;;;;;;5.47;4.10;;;20.30;99.90;;;;;;10248130;29;20245;-82
2023/07/12 09:01:16;;;;;;;11.98;7.03;;;20.30;99.90;;;;;;10255764;28;20261;-82
2023/07/12 09:06:19;;;;;;;8.48;7.18;;;20.30;99.90;;;;;;10287959;28;20245;-82
2023/07/12 09:11:32;;;;;;;9.65;6.28;;;20.30;99.90;;;;;;10301724;28;20648;-82
2023/07/12 09:16:35;;;;;;;8.55;6.45;;;20.40;99.90;;;;;;10313410;28;20245;-83
2023/07/12 09:21:38;;;;;;;4.57;4.10;;;20.50;99.90;;;;;;10270183;28;20291;-82
2023/07/12 09:26:41;;;;;;;9.80;6.53;;;20.70;99.90;;;;;;10286708;28;20241;-82
2023/07/12 09:31:45;;;;;;;5.10;4.53;;;20.90;99.90;;;;;;10286629;28;20305;-82
2023/07/12 09:36:56;;;;;;;11.00;7.60;;;20.90;99.90;;;;;;10267518;28;20289;-82
2023/07/12 09:42:01;;;;;;;7.75;5.40;;;20.90;99.90;;;;;;10271630;28;20332;-82
2023/07/12 09:47:25;;;;;;;5.80;4.88;;;20.90;99.90;;;;;;10280394;28;20404;-81
2023/07/12 09:52:33;;;;;;;10.57;7.85;;;21.10;97.60;;;;;;10287257;28;20304;-81
2023/07/12 09:57:47;;;;;;;5.65;4.13;;;21.20;99.90;;;;;;10286682;28;20650;-81
2023/07/12 10:03:03;;;;;;;8.13;4.45;;;21.30;98.90;;;;;;10274505;28;20214;-82
2023/07/12 10:08:13;;;;;;;4.72;3.45;;;21.60;95.90;;;;;;10285377;28;20653;-82
2023/07/12 10:13:42;;;;;;;4.32;3.88;;;21.80;96.60;;;;;;10283629;28;20331;-82
2023/07/12 10:18:48;;;;;;;12.35;8.60;;;22.00;97.70;;;;;;10246032;29;20329;-82
2023/07/12 10:23:52;;;;;;;11.50;7.05;;;22.40;99.90;;;;;;10250918;28;20304;-82
2023/07/12 10:29:08;;;;;;;3.58;3.20;;;22.70;99.90;;;;;;10281575;28;20292;-82
2023/07/12 10:34:28;;;;;;;8.05;5.90;;;22.90;94.50;;;;;;10279065;28;20244;-82
2023/07/12 10:39:33;;;;;;;6.88;5.57;;;23.40;99.00;;;;;;10283706;28;20702;-82
2023/07/12 10:44:45;;;;;;;7.05;5.97;;;23.80;97.70;;;;;;10269928;28;20254;-83
2023/07/12 10:49:59;;;;;;;11.50;8.27;;;24.20;99.90;;;;;;10281810;28;20288;-82
2023/07/12 10:55:18;;;;;;;5.82;5.28;;;24.50;97.70;;;;;;10285464;28;20297;-82
2023/07/12 11:00:27;;;;;;;9.77;8.63;;;24.70;94.90;;;;;;10282792;28;20416;-82
2023/07/12 11:05:38;;;;;;;7.78;6.70;;;25.10;95.10;;;;;;10284468;28;20249;-80
2023/07/12 11:10:43;;;;;;;6.38;5.78;;;25.40;91.40;;;;;;10283769;28;20265;-84
2023/07/12 11:16:01;;;;;;;5.85;5.35;;;25.60;90.90;;;;;;10285082;28;20273;-83
2023/07/12 11:21:07;;;;;;;7.90;6.68;;;25.90;91.40;;;;;;10268202;28;20269;-83
2023/07/12 11:26:30;;;;;;;6.65;4.93;;;26.00;88.50;;;;;;10287776;28;20316;-83
2023/07/12 11:31:33;;;;;;;9.45;8.30;;;26.20;90.70;;;;;;10291728;28;20237;-84
2023/07/12 11:36:36;;;;;;;9.68;7.07;;;26.20;94.70;;;;;;10291088;28;20312;-83
2023/07/12 11:41:39;;;;;;;9.50;7.72;;;26.10;92.20;;;;;;10269465;28;20270;-84
2023/07/12 11:46:42;;;;;;;7.20;6.50;;;26.30;93.30;;;;;;10248937;29;20245;-83
2023/07/12 11:51:47;;;;;;;8.10;6.40;;;26.50;91.10;;;;;;10242414;29;20688;-84
2023/07/12 11:56:52;;;;;;;7.53;5.82;;;26.70;87.70;;;;;;10251332;29;20298;-84
2023/07/12 12:01:54;;;;;;;4.13;3.35;;;26.90;87.60;;;;;;10249320;28;20521;-82
2023/07/12 12:07:20;;;;;;;12.07;7.90;;;27.00;80.30;;;;;;10232156;28;20310;-82
2023/07/12 12:12:29;;;;;;;7.85;6.85;;;27.10;91.40;;;;;;10210500;29;20786;-83
2023/07/12 12:17:37;;;;;;;8.60;6.70;;;27.00;90.20;;;;;;10233097;28;20306;-83
2023/07/12 12:22:41;;;;;;;6.40;5.72;;;26.80;90.60;;;;;;10248057;28;20266;-82
2023/07/12 12:27:46;;;;;;;8.55;5.97;;;26.70;90.50;;;;;;10242712;28;20329;-83
2023/07/12 12:33:20;;;;;;;6.43;5.53;;;26.50;89.60;;;;;;10245390;29;20251;-82
2023/07/12 12:38:27;;;;;;;6.47;5.00;;;26.60;90.10;;;;;;10212915;29;20250;-84
2023/07/12 12:43:30;;;;;;;7.05;5.70;;;26.90;88.00;;;;;;10280823;28;20281;-83
2023/07/12 12:48:33;;;;;;;5.68;5.18;;;27.20;85.20;;;;;;10284834;28;20305;-83
2023/07/12 12:53:38;;;;;;;7.40;5.32;;;27.40;83.90;;;;;;10276808;28;20237;-83
2023/07/12 12:58:55;;;;;;;7.65;5.60;;;27.40;81.40;;;;;;10279563;28;20332;-83
2023/07/12 13:04:01;;;;;;;5.93;5.32;;;27.50;79.70;;;;;;10287658;28;20244;-83
2023/07/12 13:09:20;;;;;;;6.32;5.35;;;27.70;79.40;;;;;;10327940;28;20359;-82
2023/07/12 13:14:25;;;;;;;5.30;4.75;;;27.90;79.00;;;;;;10310482;28;20237;-83
2023/07/12 13:19:31;;;;;;;7.93;6.32;;;27.80;74.90;;;;;;10271185;28;20262;-83
2023/07/12 13:24:34;;;;;;;5.75;5.18;;;27.60;77.50;;;;;;10270596;28;20290;-85
2023/07/12 13:29:36;;;;;;;5.50;5.00;;;27.40;76.00;;;;;;10286467;28;20292;-83
2023/07/12 13:34:39;;;;;;;7.22;6.53;;;27.40;76.30;;;;;;10285908;28;20312;-83
2023/07/12 13:39:45;;;;;;;5.85;5.25;;;27.50;76.10;;;;;;10287869;28;20249;-85
2023/07/12 13:44:48;;;;;;;6.72;5.90;;;27.50;74.10;;;;;;10287412;28;20249;-84
2023/07/12 13:49:55;;;;;;;5.80;5.30;;;27.40;74.50;;;;;;10285254;28;20296;-83
2023/07/12 13:54:59;;;;;;;6.75;5.50;;;27.40;76.20;;;;;;10286660;28;20635;-83
2023/07/12 14:00:06;;;;;;;9.07;5.78;;;27.30;76.50;;;;;;10285970;28;20296;-85
2023/07/12 14:05:12;;;;;;;4.72;4.32;;;27.30;74.30;;;;;;10284601;28;20238;-84
2023/07/12 14:10:20;;;;;;;6.78;5.82;;;27.30;72.90;;;;;;10285593;28;20311;-84
2023/07/12 14:15:27;;;;;;;6.00;5.40;;;27.30;72.00;;;;;;10286177;28;20848;-84
2023/07/12 14:20:30;;;;;;;6.93;5.93;;;27.30;71.50;;;;;;10276746;28;20265;-82
2023/07/12 14:25:37;;;;;;;8.90;6.43;;;27.50;71.40;;;;;;10259326;28;20230;-83
2023/07/12 14:30:39;;;;;;;11.70;6.35;;;27.80;69.00;;;;;;10268878;28;20245;-82
2023/07/12 14:35:45;;;;;;;6.13;5.53;;;27.90;67.50;;;;;;10266085;28;20256;-82
2023/07/12 14:40:48;;;;;;;8.27;7.45;;;27.90;66.40;;;;;;10229978;29;20265;-82
2023/07/12 14:45:50;;;;;;;8.57;7.53;;;27.70;68.70;;;;;;10261932;28;20686;-82
2023/07/12 14:50:53;;;;;;;6.93;6.28;;;27.60;69.40;;;;;;10301832;28;20700;-83
2023/07/12 14:55:55;;;;;;;8.02;7.25;;;27.40;67.70;;;;;;10260574;28;20259;-82
2023/07/12 15:00:58;;;;;;;6.15;5.55;;;27.40;70.40;;;;;;10329966;28;20256;-82
2023/07/12 15:06:00;;;;;;;9.05;6.05;;;27.60;69.70;;;;;;10334183;28;20236;-82
2023/07/12 15:11:10;;;;;;;8.93;6.05;;;27.70;66.90;;;;;;10311769;28;20303;-83
2023/07/12 15:16:15;;;;;;;6.28;5.47;;;27.70;66.10;;;;;;10294029;28;20268;-82
2023/07/12 15:21:30;;;;;;;9.20;6.32;;;27.70;64.60;;;;;;10308149;28;20256;-84
2023/07/12 15:26:32;;;;;;;10.25;8.00;;;27.60;65.70;;;;;;10286847;28;20233;-83
2023/07/12 15:31:37;;;;;;;13.80;8.02;;;27.70;66.90;;;;;;10347388;23;20285;-82
2023/07/12 16:53:49;;;;;;;4.88;2.60;;;27.60;45.80;;;;;;10448778;28;20818;-96
2023/07/12 17:05:30;;;;;;;4.65;3.92;;;27.50;48.00;;;;;;10468137;28;20206;-96
2023/07/12 17:17:11;;;;;;;6.22;5.03;;;27.40;47.30;;;;;;10419643;28;20196;-96
2023/07/12 17:22:16;;;;;;;5.20;4.60;;;27.20;47.00;;;;;;10417185;28;20235;-96
2023/07/12 17:27:58;;;;;;;2.95;2.63;;;27.10;47.60;;;;;;10425140;28;20195;-95
2023/07/12 17:50:41;;;;;;;2.30;1.20;;;27.10;36.00;;;;;;10922849;23;20298;-93
2023/07/12 17:55:47;;;;;;;1.70;1.13;;;27.10;33.70;;;;;;10368869;28;20263;-94
2023/07/12 18:00:51;;;;;;;10.77;2.00;;;27.10;34.80;;;;;;10346368;28;20648;-92
2023/07/12 18:05:54;;;;;;;1.88;1.63;;;27.10;32.90;;;;;;10345457;28;20258;-94
2023/07/12 18:10:58;;;;;;;2.28;1.58;;;27.00;33.20;;;;;;10353604;28;20204;-93
2023/07/12 18:16:01;;;;;;;1.50;1.30;;;26.90;33.00;;;;;;10351533;28;20259;-95
2023/07/12 18:21:12;;;;;;;1.50;1.40;;;26.90;36.20;;;;;;10360590;28;20248;-95
2023/07/12 18:26:16;;;;;;;1.30;1.13;;;26.80;35.30;;;;;;10328154;28;20209;-94
2023/07/12 18:31:26;;;;;;;2.25;1.55;;;26.60;37.10;;;;;;10337862;28;20275;-95
2023/07/12 18:36:29;;;;;;;4.07;1.50;;;26.50;39.20;;;;;;10342358;28;20244;-94
2023/07/12 18:41:33;;;;;;;1.85;1.30;;;26.40;38.20;;;;;;10338856;28;20271;-96
2023/07/12 18:46:36;;;;;;;2.67;2.45;;;26.20;33.30;;;;;;10332393;28;20209;-96
2023/07/12 18:51:39;;;;;;;7.53;4.60;;;25.90;32.70;;;;;;10337018;28;20224;-96
2023/07/12 18:56:43;;;;;;;5.13;3.03;;;25.60;31.10;;;;;;10335168;28;20254;-96
2023/07/12 19:07:32;;;;;;;14.95;11.00;;;25.00;31.10;;;;;;10916791;23;20285;-96
2023/07/12 19:12:48;;;;;;;5.78;4.00;;;24.30;33.50;;;;;;10634741;23;21222;-96
2023/07/12 19:18:46;;;;;;;2.42;1.45;;;24.20;33.60;;;;;;10571019;23;20267;-96
2023/07/12 19:29:51;;;;;;;2.22;1.42;;;23.70;36.20;;;;;;11979822;23;21347;-96
2023/07/12 19:41:56;;;;;;;3.33;2.40;;;23.20;38.30;;;;;;10988845;23;20210;-96
2023/07/12 19:47:01;;;;;;;3.22;2.25;;;23.10;39.40;;;;;;10503554;23;20251;-95
2023/07/12 19:52:09;;;;;;;1.98;1.42;;;22.90;40.60;;;;;;10181656;29;20267;-96
2023/07/12 19:57:16;;;;;;;1.17;0.90;;;22.70;41.50;;;;;;10183315;29;20196;-96
2023/07/12 20:02:28;;;;;;;1.65;1.38;;;22.50;42.30;;;;;;10207115;29;20246;-96
2023/07/12 20:07:31;;;;;;;1.75;1.10;;;22.30;43.00;;;;;;10182372;29;20246;-96
2023/07/12 20:12:37;;;;;;;1.63;1.00;;;22.20;43.50;;;;;;10204244;29;20247;-94
2023/07/12 20:17:40;;;;;;;2.22;1.10;;;22.00;45.30;;;;;;10162012;29;20581;-95
2023/07/12 20:22:43;;;;;;;4.18;1.35;;;21.80;47.20;;;;;;10154047;29;20228;-95
2023/07/12 20:27:46;;;;;;;1.88;1.17;;;21.40;50.50;;;;;;10197381;29;20754;-96
2023/07/12 20:32:48;;;;;;;4.28;1.58;;;20.90;61.30;;;;;;10171360;29;20216;-94
2023/07/12 20:37:51;;;;;;;5.60;2.40;;;;;;;;;;10173436;29;20589;-95
2023/07/12 20:42:54;;;;;;;5.13;1.33;;;20.00;80.20;;;;;;10171440;29;20258;-95
2023/07/12 20:48:00;;;;;;;2.00;1.27;;;19.60;93.00;;;;;;10183170;29;20292;-95
2023/07/12 20:53:06;;;;;;;1.30;1.10;;;19.10;95.20;;;;;;10198418;29;20220;-95
2023/07/12 20:58:09;;;;;;;6.25;1.20;;;19.00;96.30;;;;;;10183390;29;20223;-95
2023/07/12 21:03:12;;;;;;;4.25;1.17;;;18.70;98.30;;;;;;10170101;29;20295;-94
2023/07/12 21:08:15;;;;;;;2.65;2.40;;;18.50;98.80;;;;;;10205179;29;20204;-96
2023/07/12 21:13:17;;;;;;;4.22;2.10;;;18.80;99.90;;;;;;10153977;29;20247;-94
2023/07/12 21:18:21;;;;;;;2.25;1.90;;;19.00;99.90;;;;;;10171349;29;20255;-95
2023/07/12 21:23:24;;;;;;;2.72;1.67;;;19.20;99.90;;;;;;10173753;29;20235;-94
2023/07/12 21:28:27;;;;;;;1.33;1.05;;;19.30;99.90;;;;;;10164033;29;20574;-94
2023/07/12 21:33:30;;;;;;;5.20;2.05;;;19.20;98.80;;;;;;10166182;29;20700;-93
2023/07/12 21:38:33;;;;;;;4.68;1.50;;;19.10;98.50;;;;;;10170124;29;20247;-94
2023/07/12 21:43:37;;;;;;;2.90;1.70;;;19.00;97.60;;;;;;10184282;29;20744;-93
2023/07/12 21:48:39;;;;;;;1.25;1.10;;;18.90;98.90;;;;;;10162652;29;20264;-94
2023/07/12 21:53:42;;;;;;;2.10;1.48;;;18.90;98.90;;;;;;10163208;29;20282;-94
2023/07/12 21:58:45;;;;;;;1.80;1.30;;;19.20;99.90;;;;;;10163584;29;20243;-92
2023/07/12 22:03:47;;;;;;;2.25;1.35;;;19.30;99.90;;;;;;10174021;29;20270;-92
2023/07/12 22:08:50;;;;;;;3.35;1.42;;;19.30;99.90;;;;;;10149928;29;20668;-93
2023/07/12 22:13:53;;;;;;;2.20;1.10;;;19.10;98.90;;;;;;10192779;28;20247;-93
2023/07/12 22:18:56;;;;;;;2.28;1.13;;;19.20;99.50;;;;;;10170093;29;20219;-92
2023/07/12 22:24:00;;;;;;;1.63;0.90;;;19.20;98.40;;;;;;10167681;29;20278;-93
2023/07/12 22:29:03;;;;;;;1.92;1.15;;;19.30;99.00;;;;;;10167775;29;20243;-92
2023/07/12 22:34:06;;;;;;;2.03;1.17;;;19.40;97.70;;;;;;10168255;29;20310;-92
2023/07/12 22:39:08;;;;;;;3.25;1.17;;;19.10;98.20;;;;;;10166434;29;20247;-92
2023/07/12 22:44:11;;;;;;;1.50;1.20;;;19.10;98.70;;;;;;10167225;29;20270;-92
2023/07/12 22:49:17;;;;;;;3.58;1.45;;;19.10;99.40;;;;;;10189468;29;20262;-93
2023/07/12 22:54:20;;;;;;;1.77;1.45;;;19.20;97.30;;;;;;10204420;29;20901;-91
2023/07/12 22:59:24;;;;;;;2.97;1.20;;;19.20;98.30;;;;;;10173175;29;20306;-93
2023/07/12 23:04:27;;;;;;;2.95;0.90;;;19.20;96.60;;;;;;10168857;29;20255;-92
2023/07/12 23:09:29;;;;;;;1.55;1.27;;;18.90;96.30;;;;;;10184493;29;20231;-93
2023/07/12 23:14:32;;;;;;;3.45;1.27;;;18.40;98.00;;;;;;10176402;29;20248;-92
2023/07/12 23:19:36;;;;;;;3.40;1.05;;;18.50;98.50;;;;;;10175318;29;20251;-92
2023/07/12 23:24:39;;;;;;;3.97;1.58;;;18.20;99.40;;;;;;10190141;29;20658;-93
2023/07/12 23:29:42;;;;;;;3.10;1.35;;;18.00;97.60;;;;;;10172435;29;20242;-92
2023/07/12 23:34:47;;;;;;;3.65;1.17;;;18.10;99.90;;;;;;10190371;29;20218;-93
2023/07/12 23:39:50;;;;;;;4.00;1.00;;;17.90;99.80;;;;;;10203970;29;20280;-93
2023/07/12 23:44:53;;;;;;;4.55;1.63;;;18.00;99.90;;;;;;10174028;29;20293;-92
2023/07/12 23:49:56;;;;;;;4.25;1.83;;;17.90;99.40;;;;;;10150976;29;20267;-93
2023/07/12 23:55:00;;;;;;;1.90;1.40;;;17.70;99.70;;;;;;10148261;29;20243;-92
